Newtown Square, Pennsylvania
Current Conditions -  °F | °C
As of 4:54 AM on Friday 19 Dec 2014 (Local Time) from KPHL Reporting Station
Overcast Overcast  
Wind Chill: 29°   Ceiling: 3200
Heat Index: 37°   Visibility: 10mi
Dew Point: 25°   Wind: 12mph
Humidity: 62%   Direction: 280°W
Pressure: 30.05"   Gusts: NA
Location:  39.99°N, 75.4°W
Report Text: KPHL 190954Z 28010KT 10SM BKN032 OVC041 03/M04 A3005 RMK AO2 SLP175 T00281039
Loading
Personal Weather Stations






























Interactive Weather Map New forecast layout! Learn more

10-Day Weather Forecast

Advertisements
Track Severe Weather on mobile